Time;durP1;ratioP1;P1;durP2;ratioP2;P2;SDS_P1;SDS_P2;PMS_P1;PMS_P2;Temp;Humidity;BMP_temperature;BMP_pressure;BME280_temperature;BME280_humidity;BME280_pressure;Samples;Min_cycle;Max_cycle;Signal;HPM_P1;HPM_P2
2021/07/01 00:01:33;;;;;;;8.65;6.68;;;;;;;18.03;81.97;98944.22;5132571;27;20136;-80
2021/07/01 00:04:13;;;;;;;8.38;6.50;;;;;;;18.11;81.73;98957.78;5116289;27;20407;-78
2021/07/01 00:06:51;;;;;;;12.52;6.88;;;;;;;17.87;81.82;98929.22;5075801;28;20404;-82
2021/07/01 00:09:54;;;;;;;8.27;6.40;;;;;;;17.91;81.86;98928.09;5159700;27;20409;-79
2021/07/01 00:12:32;;;;;;;11.02;6.78;;;;;;;18.14;82.08;98960.28;5120134;27;20141;-78
2021/07/01 00:15:18;;;;;;;10.02;6.63;;;;;;;18.18;82.04;98966.25;5083509;28;20409;-78
2021/07/01 00:17:55;;;;;;;11.88;7.18;;;;;;;18.03;82.01;98945.03;5121686;27;20410;-81
2021/07/01 00:20:33;;;;;;;11.93;7.35;;;;;;;18.21;81.94;98973.94;5080373;28;20783;-85
2021/07/01 00:23:11;;;;;;;8.60;6.53;;;;;;;18.17;82.16;98954.00;5121144;27;20397;-82
2021/07/01 00:25:50;;;;;;;13.13;8.07;;;;;;;18.23;82.13;98964.19;5104275;27;20439;-80
2021/07/01 00:28:28;;;;;;;12.25;6.75;;;;;;;18.24;82.10;98950.09;5081748;27;20399;-83
2021/07/01 00:31:06;;;;;;;14.95;7.55;;;;;;;18.16;82.02;98939.16;5092067;28;20492;-81
2021/07/01 00:33:45;;;;;;;19.20;8.35;;;;;;;18.17;82.02;98952.22;5112069;27;20144;-83
2021/07/01 00:36:24;;;;;;;17.55;7.75;;;;;;;18.16;82.21;98949.69;5106998;27;20412;-82
2021/07/01 00:39:04;;;;;;;13.63;7.35;;;;;;;18.19;81.99;98957.41;5112372;27;20438;-81
2021/07/01 00:41:43;;;;;;;15.82;8.07;;;;;;;18.10;81.99;98942.09;5071863;28;20414;-82
2021/07/01 00:44:20;;;;;;;10.63;7.15;;;;;;;18.01;82.27;98912.69;5116565;27;20407;-82
2021/07/01 00:46:59;;;;;;;13.35;7.78;;;;;;;18.04;82.19;98920.44;5159966;27;20413;-79
2021/07/01 00:49:37;;;;;;;12.77;8.20;;;;;;;18.16;82.19;98937.34;5121021;27;20370;-81
2021/07/01 00:52:16;;;;;;;11.68;7.78;;;;;;;18.28;82.28;98958.69;5089502;27;20138;-83
2021/07/01 00:54:53;;;;;;;12.18;8.70;;;;;;;18.06;81.98;98918.56;5095150;27;20180;-81
2021/07/01 00:57:35;;;;;;;12.75;7.97;;;;;;;18.22;82.09;98944.06;5113803;27;20894;-81
2021/07/01 01:00:45;;;;;;;14.98;8.43;;;;;;;18.16;82.33;98933.88;5101133;27;20411;-79
2021/07/01 01:03:23;;;;;;;15.85;8.52;;;;;;;18.20;82.22;98932.78;5121361;27;20410;-79
2021/07/01 01:06:02;;;;;;;12.35;8.68;;;;;;;18.16;82.09;98926.81;5120434;27;20406;-80
2021/07/01 01:08:39;;;;;;;13.98;8.30;;;;;;;18.13;82.25;98926.13;5121121;27;20408;-79
2021/07/01 01:11:17;;;;;;;13.70;8.05;;;;;;;18.24;82.23;98936.94;5120943;27;20420;-80
2021/07/01 01:13:57;;;;;;;16.65;8.80;;;;;;;18.30;82.22;98949.75;5100349;27;20416;-80
2021/07/01 01:16:43;;;;;;;15.10;8.98;;;;;;;18.30;82.34;98952.41;5071284;28;20407;-82
2021/07/01 01:19:20;;;;;;;12.35;8.52;;;;;;;18.28;82.37;98946.38;5106256;27;1441330;-82
2021/07/01 01:21:58;;;;;;;12.85;8.27;;;;;;;18.13;82.32;98908.53;5113840;27;20875;-80
2021/07/01 01:24:36;;;;;;;15.85;8.48;;;;;;;18.39;82.33;98943.16;5073565;28;20410;-81
2021/07/01 01:27:13;;;;;;;15.55;8.15;;;;;;;18.26;82.26;98911.38;5101845;27;20137;-86
2021/07/01 01:29:50;;;;;;;13.80;8.32;;;;;;;18.28;82.39;98914.75;5134249;27;20135;-86
2021/07/01 01:32:28;;;;;;;13.68;8.38;;;;;;;18.20;82.23;98907.28;5093777;27;20841;-87
2021/07/01 01:35:07;;;;;;;13.95;8.43;;;;;;;18.44;82.42;98929.72;5071233;28;20700;-83
2021/07/01 01:37:46;;;;;;;7.80;6.68;;;;;;;18.36;82.17;98909.06;5073006;28;20418;-78
2021/07/01 01:40:24;;;;;;;14.02;8.68;;;;;;;18.45;82.34;98932.28;5097906;27;20432;-83
2021/07/01 01:43:02;;;;;;;9.50;7.53;;;;;;;17.76;81.89;98828.94;5113683;27;20411;-87
2021/07/01 01:45:42;;;;;;;11.02;7.93;;;;;;;18.39;82.04;98910.72;5093515;27;20402;-83
2021/07/01 01:48:22;;;;;;;11.60;7.43;;;;;;;18.57;82.22;98936.03;5134515;27;20937;-83
2021/07/01 01:51:00;;;;;;;9.07;7.57;;;;;;;18.46;82.08;98922.56;5123020;27;20402;-77
2021/07/01 01:53:38;;;;;;;9.18;7.10;;;;;;;18.61;82.11;98939.31;5153315;27;20418;-78
2021/07/01 01:56:36;;;;;;;10.40;7.43;;;;;;;18.64;82.33;98945.28;5110971;27;20195;-78
2021/07/01 01:59:16;;;;;;;8.07;6.70;;;;;;;18.67;82.12;98950.34;5148263;27;20152;-82
2021/07/01 02:02:32;;;;;;;10.93;7.00;;;;;;;18.64;81.94;98949.69;5121681;27;20419;-84
2021/07/01 02:05:29;;;;;;;8.65;6.60;;;;;;;18.60;82.11;98941.13;5128046;27;20400;-84
2021/07/01 02:08:08;;;;;;;8.98;6.25;;;;;;;18.54;82.24;98930.91;5132926;27;20422;-81
2021/07/01 02:10:48;;;;;;;9.20;6.38;;;;;;;18.60;82.03;98929.72;5166098;27;20409;-77
2021/07/01 02:13:28;;;;;;;8.80;7.10;;;;;;;18.55;82.09;98935.25;5102275;27;20405;-77
2021/07/01 02:16:38;;;;;;;8.68;6.55;;;;;;;18.62;81.96;98946.28;5082635;28;20810;-81
2021/07/01 02:19:16;;;;;;;9.18;6.45;;;;;;;18.64;82.01;98942.66;5136825;27;20929;-78
2021/07/01 02:21:55;;;;;;;10.05;6.32;;;;;;;18.62;82.15;98939.25;5141557;27;20400;-78
2021/07/01 02:24:32;;;;;;;10.73;6.78;;;;;;;18.45;82.01;98908.56;5095204;27;1412451;-80
2021/07/01 02:27:11;;;;;;;8.27;6.65;;;;;;;18.65;81.98;98936.41;5110060;27;20393;-80
2021/07/01 02:29:47;;;;;;;8.43;6.47;;;;;;;18.49;82.09;98911.88;5087187;27;2134216;-80
2021/07/01 02:32:26;;;;;;;7.20;6.07;;;;;;;18.67;81.98;98937.19;5154919;27;20431;-82
2021/07/01 02:35:06;;;;;;;7.13;5.97;;;;;;;18.64;82.03;98942.66;5115778;27;20492;-78
2021/07/01 02:38:02;;;;;;;7.72;6.32;;;;;;;18.58;82.10;98932.44;5112334;27;20416;-79
2021/07/01 02:40:44;;;;;;;7.10;6.00;;;;;;;18.73;82.25;98956.22;5071263;28;20406;-78
2021/07/01 02:43:25;;;;;;;9.25;5.75;;;;;;;18.64;82.22;98947.94;5113800;27;20408;-81
2021/07/01 02:46:38;;;;;;;9.10;5.90;;;;;;;18.73;82.27;98953.59;5113403;27;20399;-79
2021/07/01 02:49:22;;;;;;;8.73;6.38;;;;;;;18.69;82.31;98936.25;5115025;27;20910;-80
2021/07/01 02:52:08;;;;;;;10.07;5.63;;;;;;;18.77;82.26;98939.31;5047588;28;20431;-78
2021/07/01 02:54:46;;;;;;;6.05;5.05;;;;;;;18.64;82.08;98899.63;5117113;27;20411;-81
2021/07/01 02:57:24;;;;;;;5.88;4.88;;;;;;;18.98;82.27;98942.53;5111927;27;20400;-81
2021/07/01 03:00:15;;;;;;;6.65;5.10;;;;;;;19.04;82.13;98950.09;5096441;27;20881;-85
2021/07/01 03:03:07;;;;;;;6.28;5.07;;;;;;;18.92;81.89;98919.97;5092941;27;20400;-84
2021/07/01 03:06:06;;;;;;;5.88;4.43;;;;;;;19.21;81.99;98943.84;5091878;27;20409;-84
2021/07/01 03:08:45;;;;;;;5.00;4.50;;;;;;;19.19;81.75;98932.53;5132021;27;20402;-87
2021/07/01 03:11:22;;;;;;;4.97;4.10;;;;;;;19.36;81.62;98954.44;5086957;28;20394;-82
2021/07/01 03:14:00;;;;;;;6.10;4.07;;;;;;;19.39;81.31;98948.97;5112006;27;20404;-82
2021/07/01 03:16:39;;;;;;;6.95;4.70;;;;;;;19.29;81.20;98930.22;5111781;27;20411;-82
2021/07/01 03:19:16;;;;;;;4.90;4.00;;;;;;;19.45;81.21;98948.63;5073965;28;20413;-79
2021/07/01 03:22:32;;;;;;;9.63;4.18;;;;;;;19.45;81.04;98948.63;5111058;27;20670;-81
2021/07/01 03:25:11;;;;;;;5.47;4.32;;;;;;;19.44;81.08;98946.06;5112829;27;20957;-78
2021/07/01 03:27:49;;;;;;;5.35;4.00;;;;;;;19.45;81.16;98953.91;5084363;27;20410;-79
2021/07/01 03:30:28;;;;;;;4.47;3.70;;;;;;;19.54;80.62;98953.34;5105399;27;20409;-80
2021/07/01 03:33:07;;;;;;;4.97;3.42;;;;;;;19.60;80.83;98957.44;5141313;27;20747;-83
2021/07/01 03:35:44;;;;;;;6.45;3.15;;;;;;;19.66;80.85;98954.41;5115301;27;20899;-81
2021/07/01 03:38:40;;;;;;;4.50;3.03;;;;;;;19.79;80.70;98961.59;5113939;27;20411;-80
2021/07/01 03:41:35;;;;;;;5.70;3.30;;;;;;;19.90;80.63;98959.16;5074976;28;20398;-79
2021/07/01 03:44:16;;;;;;;4.78;3.35;;;;;;;19.97;80.39;98951.75;5074108;28;20502;-83
2021/07/01 03:46:54;;;;;;;4.90;2.95;;;;;;;20.00;80.00;98935.69;5073988;28;20414;-87
2021/07/01 03:49:31;;;;;;;4.03;2.97;;;;;;;20.17;79.90;98950.50;5158284;27;20135;-84
2021/07/01 03:52:37;;;;;;;3.80;2.75;;;;;;;20.29;80.09;98955.03;5083060;27;20411;-82
2021/07/01 03:55:19;;;;;;;4.00;2.70;;;;;;;20.54;79.84;98963.19;5117950;27;20408;-79
2021/07/01 03:57:58;;;;;;;5.00;2.70;;;;;;;20.57;79.16;98928.66;5124119;27;20434;-81
2021/07/01 04:00:36;;;;;;;3.67;2.67;;;;;;;21.05;79.29;98959.94;5112724;27;20151;-79
2021/07/01 04:03:20;;;;;;;2.38;2.17;;;;;;;21.25;78.75;98950.69;5092599;28;20403;-79
2021/07/01 04:06:14;;;;;;;2.75;2.40;;;;;;;21.54;78.37;98955.81;5132932;27;20430;-77
2021/07/01 04:08:54;;;;;;;2.85;2.38;;;;;;;21.56;77.58;98903.63;5133116;27;20423;-78
2021/07/01 04:11:34;;;;;;;4.03;2.53;;;;;;;21.97;77.54;98938.81;5130984;27;20415;-83
2021/07/01 04:14:16;;;;;;;4.15;1.90;;;;;;;22.14;76.35;98950.88;5111099;27;20396;-79
2021/07/01 04:17:11;;;;;;;2.20;2.00;;;;;;;22.26;76.26;98939.38;5103034;27;1440479;-79
2021/07/01 04:20:10;;;;;;;3.80;2.17;;;;;;;22.41;75.24;98947.19;5128819;27;20137;-80
2021/07/01 04:23:06;;;;;;;2.80;1.90;;;;;;;22.39;74.77;98939.38;5131710;27;20391;-78
2021/07/01 04:26:04;;;;;;;3.00;2.03;;;;;;;22.34;74.08;98957.38;5112737;27;20171;-79
2021/07/01 04:28:43;;;;;;;2.10;1.90;;;;;;;22.21;73.71;98961.88;5133679;27;20430;-80
2021/07/01 04:31:25;;;;;;;2.17;1.98;;;;;;;22.10;73.66;98971.41;5133637;27;20403;-84
2021/07/01 04:34:04;;;;;;;2.65;1.70;;;;;;;22.04;73.58;98973.66;5093403;28;20413;-79
2021/07/01 04:36:42;;;;;;;2.65;1.50;;;;;;;21.84;73.44;98946.75;5092669;28;20404;-83
2021/07/01 04:39:33;;;;;;;2.10;1.80;;;;;;;21.84;73.46;98946.75;5133840;27;20167;-78
2021/07/01 04:42:27;;;;;;;3.28;1.70;;;;;;;21.87;73.52;98953.63;5128745;27;20412;-80
2021/07/01 04:45:17;;;;;;;2.75;1.85;;;;;;;21.89;73.07;98957.88;5124622;27;20155;-78
2021/07/01 04:47:56;;;;;;;2.00;1.80;;;;;;;21.86;73.20;98952.78;5103132;28;20155;-79
2021/07/01 04:50:37;;;;;;;2.45;1.73;;;;;;;21.95;72.70;98961.91;5163027;27;20420;-77
2021/07/01 04:53:33;;;;;;;3.15;2.13;;;;;;;21.87;72.81;98935.97;5124330;27;20507;-77
2021/07/01 04:56:43;;;;;;;2.35;1.42;;;;;;;21.85;73.17;98918.50;5123414;27;20412;-79
2021/07/01 04:59:23;;;;;;;2.95;1.80;;;;;;;22.09;72.70;98945.03;5067525;28;20418;-77
2021/07/01 05:02:09;;;;;;;3.58;1.75;;;;;;;21.98;72.66;98921.97;5130539;27;20411;-79
2021/07/01 05:05:06;;;;;;;2.50;1.60;;;;;;;22.17;72.73;98955.09;5124678;27;20411;-80
2021/07/01 05:07:45;;;;;;;1.80;1.70;;;;;;;22.18;72.44;98949.69;5070915;28;20411;-78
2021/07/01 05:10:23;;;;;;;2.22;2.00;;;;;;;22.06;72.61;98927.56;5133704;27;20408;-82
2021/07/01 05:13:03;;;;;;;2.90;1.92;;;;;;;22.25;72.66;98956.25;5133199;27;20416;-79
2021/07/01 05:15:41;;;;;;;2.05;1.90;;;;;;;22.24;72.08;98938.66;5082837;28;20420;-77
2021/07/01 05:18:19;;;;;;;8.50;2.10;;;;;;;22.46;71.87;98952.22;5123573;27;20434;-79
2021/07/01 05:21:20;;;;;;;3.33;1.92;;;;;;;22.49;71.86;98942.22;5120170;27;20527;-78
2021/07/01 05:24:18;;;;;;;2.75;1.80;;;;;;;22.60;71.63;98964.47;5156515;27;20127;-84
2021/07/01 05:26:59;;;;;;;1.83;1.63;;;;;;;22.18;71.12;98925.84;5106748;27;20397;-82
2021/07/01 05:29:56;;;;;;;3.53;1.60;;;;;;;21.76;70.97;98899.63;5116996;27;20404;-81
2021/07/01 05:32:53;;;;;;;2.15;1.80;;;;;;;21.90;71.54;98942.81;5100043;27;20394;-78
2021/07/01 05:35:35;;;;;;;3.58;1.50;;;;;;;21.89;71.91;98947.28;5160231;27;20407;-83
2021/07/01 05:38:14;;;;;;;3.60;1.90;;;;;;;21.73;71.99;98946.66;5142197;27;20414;-86
2021/07/01 05:40:51;;;;;;;1.70;1.60;;;;;;;21.78;72.96;98955.97;5106373;27;20413;-83
2021/07/01 05:43:28;;;;;;;2.00;1.80;;;;;;;21.88;73.07;98964.13;5076018;27;20139;-82
2021/07/01 05:46:05;;;;;;;1.85;1.65;;;;;;;21.76;73.13;98933.19;5052547;28;20515;-78
2021/07/01 05:48:44;;;;;;;2.10;1.58;;;;;;;22.09;73.13;98968.88;5115992;27;20420;-78
2021/07/01 05:51:21;;;;;;;1.92;1.73;;;;;;;22.14;73.00;98956.16;5044007;28;20409;-83
2021/07/01 05:54:10;;;;;;;2.38;1.80;;;;;;;22.22;73.46;98947.69;5070610;28;20396;-80
2021/07/01 05:56:47;;;;;;;3.55;1.75;;;;;;;22.43;73.52;98945.31;5103837;27;20405;-79
2021/07/01 05:59:24;;;;;;;3.65;1.55;;;;;;;22.78;73.25;98965.78;5080197;28;20141;-82
2021/07/01 06:02:02;;;;;;;3.53;1.60;;;;;;;23.06;72.85;98970.84;5156931;27;20949;-83
2021/07/01 06:04:40;;;;;;;2.47;1.70;;;;;;;23.23;72.62;98959.03;5114435;27;20426;-81
2021/07/01 06:07:38;;;;;;;1.73;1.63;;;;;;;23.39;72.05;98964.88;5116283;27;20422;-82
2021/07/01 06:10:19;;;;;;;3.30;1.73;;;;;;;23.61;71.63;98973.84;5137841;27;20418;-81
2021/07/01 06:13:00;;;;;;;5.13;2.15;;;;;;;23.64;71.03;98963.00;5117093;27;20408;-81
2021/07/01 06:15:37;;;;;;;2.20;2.00;;;;;;;23.60;70.92;98946.47;5075495;28;20964;-83
2021/07/01 06:18:20;;;;;;;3.38;1.92;;;;;;;23.94;70.02;98974.88;5133489;27;20920;-81
2021/07/01 06:20:57;;;;;;;3.20;2.22;;;;;;;24.06;69.92;98965.97;5122064;27;20420;-81
2021/07/01 06:23:40;;;;;;;3.83;2.20;;;;;;;24.31;69.47;98971.16;5080365;28;20429;-78
2021/07/01 06:26:24;;;;;;;3.55;2.10;;;;;;;24.63;68.90;98973.06;5108014;27;20824;-83
2021/07/01 06:29:02;;;;;;;3.53;2.20;;;;;;;24.93;68.28;98984.88;5116855;27;20415;-83
2021/07/01 06:31:40;;;;;;;3.90;2.00;;;;;;;24.79;67.21;98970.88;5118226;27;20411;-82
2021/07/01 06:34:18;;;;;;;2.90;2.00;;;;;;;24.59;66.66;98964.50;5075760;28;20414;-82
2021/07/01 06:37:03;;;;;;;4.63;2.00;;;;;;;24.40;66.82;98965.13;5097326;27;20401;-84
2021/07/01 06:40:00;;;;;;;4.18;1.98;;;;;;;24.42;67.11;98980.94;5112562;27;20404;-86
2021/07/01 06:42:59;;;;;;;2.10;1.85;;;;;;;24.85;66.94;98972.19;5071705;28;20422;-80
2021/07/01 06:45:56;;;;;;;3.42;1.80;;;;;;;24.93;65.87;98988.38;5114213;27;20895;-82
2021/07/01 06:48:55;;;;;;;2.25;1.90;;;;;;;24.68;66.04;98978.84;5115757;27;20363;-83
2021/07/01 06:51:54;;;;;;;2.72;2.00;;;;;;;24.51;66.48;98958.94;5086005;27;20407;-84
2021/07/01 06:54:50;;;;;;;2.10;1.90;;;;;;;24.56;66.63;98975.38;5158242;27;20934;-81
2021/07/01 06:57:44;;;;;;;5.30;2.10;;;;;;;24.46;66.50;98967.28;5112419;27;20408;-83
2021/07/01 07:00:23;;;;;;;3.78;2.30;;;;;;;24.43;66.43;98958.69;5056712;27;20426;-81
2021/07/01 07:03:02;;;;;;;2.33;2.10;;;;;;;24.60;66.78;98968.84;5114329;27;20407;-82
2021/07/01 07:05:44;;;;;;;2.70;2.00;;;;;;;24.89;66.50;98986.91;5092296;27;20773;-82
2021/07/01 07:08:22;;;;;;;3.95;1.90;;;;;;;24.99;66.01;98965.72;5114320;27;20404;-80
2021/07/01 07:11:02;;;;;;;4.53;2.03;;;;;;;25.18;65.94;98975.69;5106599;27;20417;-80
2021/07/01 07:13:40;;;;;;;2.00;1.58;;;;;;;25.54;65.97;98972.78;5114088;27;20803;-81
2021/07/01 07:16:19;;;;;;;2.67;1.95;;;;;;;26.19;64.48;98988.59;5114426;27;20395;-83
2021/07/01 07:19:01;;;;;;;5.90;1.95;;;;;;;26.46;64.48;98995.16;5093926;28;20413;-80
2021/07/01 07:21:44;;;;;;;2.70;2.03;;;;;;;26.58;63.45;98982.56;5114490;27;20411;-82
2021/07/01 07:24:21;;;;;;;3.15;2.13;;;;;;;27.18;64.28;98992.34;5107774;27;1439566;-82
2021/07/01 07:26:59;;;;;;;3.83;2.35;;;;;;;27.77;61.93;98984.28;5099394;27;20405;-81
2021/07/01 07:29:41;;;;;;;6.45;2.78;;;;;;;27.70;60.12;98988.53;5112636;27;20412;-81
2021/07/01 07:32:22;;;;;;;2.10;1.88;;;;;;;27.47;59.79;99002.22;5095728;27;20409;-81
2021/07/01 07:35:00;;;;;;;3.08;1.70;;;;;;;26.96;60.54;98978.28;5113960;27;20771;-81
2021/07/01 07:37:38;;;;;;;1.75;1.55;;;;;;;27.23;60.74;98995.44;5076614;28;20407;-81
2021/07/01 07:40:18;;;;;;;2.58;1.40;;;;;;;27.67;60.17;98995.00;5115380;27;20411;-80
2021/07/01 07:42:58;;;;;;;4.03;2.00;;;;;;;27.78;59.41;98983.31;5115551;27;20403;-77
2021/07/01 07:45:36;;;;;;;2.10;2.00;;;;;;;27.60;58.47;98991.22;5155981;27;20413;-79
2021/07/01 07:48:14;;;;;;;2.20;2.03;;;;;;;27.47;58.55;99002.22;5153203;27;20394;-80
2021/07/01 07:50:56;;;;;;;2.92;2.20;;;;;;;27.32;58.10;99005.28;5104603;27;20417;-82
2021/07/01 07:53:38;;;;;;;2.60;2.35;;;;;;;27.33;59.11;99004.28;5070664;28;20414;-79
2021/07/01 07:56:37;;;;;;;2.35;2.15;;;;;;;27.91;59.04;99007.91;5100056;27;20754;-79
2021/07/01 07:59:22;;;;;;;3.22;2.00;;;;;;;28.97;58.66;98969.28;5093647;27;20405;-80
2021/07/01 08:02:04;;;;;;;5.38;2.25;;;;;;;31.28;58.07;98990.31;5109907;27;20408;-85
2021/07/01 08:04:42;;;;;;;3.17;2.00;;;;;;;34.17;54.12;98985.28;5110150;27;20400;-79
2021/07/01 08:07:21;;;;;;;2.25;1.95;;;;;;;36.46;49.23;98985.53;5110612;27;20408;-80
2021/07/01 08:09:59;;;;;;;3.72;1.63;;;;;;;37.37;45.25;98990.75;5110980;27;20411;-80
2021/07/01 08:12:41;;;;;;;2.72;2.00;;;;;;;36.78;43.07;98991.25;5111325;27;20925;-81
2021/07/01 08:15:20;;;;;;;3.97;2.40;;;;;;;36.50;44.04;99012.19;5127795;27;20906;-82
2021/07/01 08:18:00;;;;;;;2.75;2.45;;;;;;;36.75;43.04;99013.34;5091178;27;20417;-79
2021/07/01 08:20:37;;;;;;;4.03;3.60;;;;;;;36.21;42.12;99001.44;5070354;28;20429;-80
2021/07/01 08:23:14;;;;;;;3.75;3.45;;;;;;;35.36;42.66;99020.31;5111316;27;20132;-82
2021/07/01 08:25:53;;;;;;;7.15;3.65;;;;;;;34.41;43.65;99013.00;5106934;27;20134;-80
2021/07/01 08:28:32;;;;;;;5.03;3.28;;;;;;;33.67;45.49;99014.63;5115625;27;20403;-83
2021/07/01 08:31:15;;;;;;;3.83;2.95;;;;;;;34.50;44.23;99005.66;5072671;28;20410;-79
2021/07/01 08:33:56;;;;;;;3.15;2.55;;;;;;;35.33;42.89;99002.63;5071862;28;20414;-78
2021/07/01 08:36:35;;;;;;;2.55;2.33;;;;;;;35.63;42.13;98998.94;5100265;27;20405;-79
2021/07/01 08:39:13;;;;;;;2.60;2.40;;;;;;;35.94;41.65;99009.34;5098096;28;20404;-79
2021/07/01 08:41:56;;;;;;;2.92;2.53;;;;;;;35.71;41.25;99013.16;5102347;27;20405;-80
2021/07/01 08:44:43;;;;;;;3.78;2.80;;;;;;;35.38;41.13;98999.34;5115328;27;20408;-79
2021/07/01 08:47:21;;;;;;;3.28;2.58;;;;;;;34.53;39.76;99027.75;5116062;27;20431;-80
2021/07/01 08:50:15;;;;;;;2.72;2.50;;;;;;;33.92;42.81;99027.88;5112313;27;20431;-80
2021/07/01 08:53:02;;;;;;;2.90;2.70;;;;;;;34.03;41.91;99038.22;5093287;27;20409;-79
2021/07/01 08:55:41;;;;;;;4.05;3.15;;;;;;;33.70;42.24;99043.91;5109069;27;20520;-80
2021/07/01 08:58:22;;;;;;;13.55;3.03;;;;;;;33.62;42.60;99036.75;5109278;27;20403;-79
2021/07/01 09:01:03;;;;;;;4.20;2.45;;;;;;;33.57;42.70;99047.22;5071916;28;20417;-86
2021/07/01 09:03:44;;;;;;;3.00;2.40;;;;;;;33.51;43.36;99042.53;5092695;28;20393;-84
2021/07/01 09:06:26;;;;;;;4.00;2.38;;;;;;;34.29;41.97;99046.91;5048451;27;20408;-78
2021/07/01 09:09:09;;;;;;;2.53;2.33;;;;;;;33.95;41.28;99032.91;5111126;27;20415;-77
2021/07/01 09:11:47;;;;;;;2.40;2.08;;;;;;;33.67;42.68;99051.50;5098514;27;20401;-81
2021/07/01 09:14:27;;;;;;;4.38;2.30;;;;;;;33.65;42.33;99040.91;5112340;27;20415;-81
2021/07/01 09:17:09;;;;;;;3.70;2.55;;;;;;;34.11;41.86;99029.19;5071600;28;20775;-81
2021/07/01 09:19:48;;;;;;;3.00;2.70;;;;;;;34.38;42.02;99035.81;5071342;28;20933;-80
2021/07/01 09:22:26;;;;;;;3.92;2.50;;;;;;;35.47;41.03;99041.47;5113721;27;20404;-81
2021/07/01 09:25:05;;;;;;;2.92;2.65;;;;;;;36.13;40.45;99034.91;5093738;27;20428;-82
2021/07/01 09:27:50;;;;;;;3.30;2.70;;;;;;;38.04;38.17;99023.31;5092523;27;20421;-78
2021/07/01 09:30:32;;;;;;;3.30;2.63;;;;;;;39.74;36.23;99035.81;5111292;27;20426;-79
2021/07/01 09:33:13;;;;;;;7.22;2.50;;;;;;;39.76;35.24;99033.72;5093268;27;20436;-77
2021/07/01 09:35:50;;;;;;;3.50;2.70;;;;;;;39.31;35.38;99040.97;5110792;27;20424;-77
2021/07/01 09:38:28;;;;;;;3.22;2.63;;;;;;;40.05;34.35;99055.88;5127696;27;20147;-77
2021/07/01 09:41:05;;;;;;;2.67;2.30;;;;;;;40.67;33.85;99041.38;5101501;27;20423;-78
2021/07/01 09:43:46;;;;;;;2.60;2.40;;;;;;;40.68;33.58;99048.50;5110202;27;20152;-80
2021/07/01 09:46:28;;;;;;;3.55;2.88;;;;;;;40.39;32.00;99045.44;5110563;27;20422;-78
2021/07/01 09:49:10;;;;;;;3.00;2.60;;;;;;;39.06;33.52;99056.38;5110789;27;20462;-78
2021/07/01 09:51:53;;;;;;;3.08;2.72;;;;;;;38.04;33.84;99052.31;5087978;27;20782;-78
2021/07/01 09:54:36;;;;;;;4.50;2.60;;;;;;;37.64;35.51;99056.72;5113624;27;20427;-77
2021/07/01 09:57:22;;;;;;;2.88;2.58;;;;;;;37.98;34.79;99059.44;5074647;27;20407;-78
2021/07/01 10:00:08;;;;;;;4.38;2.40;;;;;;;37.55;35.00;99062.56;5094149;27;20416;-79
2021/07/01 10:03:08;;;;;;;2.88;2.30;;;;;;;38.06;35.57;99053.78;5112473;27;20419;-78
2021/07/01 10:05:45;;;;;;;3.28;2.55;;;;;;;40.02;33.53;99039.97;5112562;27;20403;-78
2021/07/01 10:08:38;;;;;;;5.28;2.60;;;;;;;40.63;31.96;99067.38;5112851;27;20500;-79
2021/07/01 10:11:30;;;;;;;2.65;2.30;;;;;;;39.07;32.71;99068.91;5104086;27;20428;-78
2021/07/01 10:14:12;;;;;;;2.83;2.63;;;;;;;37.56;33.77;99072.34;5113049;27;20411;-76
2021/07/01 10:16:50;;;;;;;6.22;3.50;;;;;;;37.67;34.95;99069.00;5094098;27;20416;-77
2021/07/01 10:19:28;;;;;;;3.08;2.75;;;;;;;38.70;34.81;99059.47;5114433;27;20408;-78
2021/07/01 10:22:09;;;;;;;2.97;2.63;;;;;;;38.24;32.84;99074.81;5114133;27;20438;-77
2021/07/01 10:24:49;;;;;;;2.53;2.33;;;;;;;38.08;34.44;99070.66;5113148;27;20411;-79
2021/07/01 10:27:42;;;;;;;3.63;2.20;;;;;;;38.80;34.12;99064.44;5095567;27;20406;-77
2021/07/01 10:30:24;;;;;;;2.33;2.13;;;;;;;38.75;33.81;99068.81;5052886;28;20415;-78
2021/07/01 10:33:01;;;;;;;2.78;2.30;;;;;;;38.33;33.27;99085.47;5112854;27;20403;-79
2021/07/01 10:35:39;;;;;;;2.92;2.45;;;;;;;37.32;34.69;99082.72;5078753;28;20149;-77
2021/07/01 10:38:18;;;;;;;2.60;1.90;;;;;;;36.32;35.70;99090.19;5170853;27;20397;-79
2021/07/01 10:40:58;;;;;;;2.45;2.22;;;;;;;35.49;35.99;99084.53;5122961;27;20405;-78
2021/07/01 10:43:46;;;;;;;4.63;2.30;;;;;;;34.99;37.62;99079.81;5090492;28;20422;-78
2021/07/01 10:46:40;;;;;;;2.63;2.40;;;;;;;34.37;38.14;99093.53;5132164;27;20418;-79
2021/07/01 10:49:35;;;;;;;2.63;2.42;;;;;;;33.77;39.32;99092.56;5129452;27;20429;-78
2021/07/01 10:52:15;;;;;;;2.85;2.30;;;;;;;33.29;39.55;99082.78;5101025;27;20438;-77
2021/07/01 10:54:57;;;;;;;2.17;2.03;;;;;;;33.22;40.47;99087.19;5110101;27;20183;-78
2021/07/01 10:57:36;;;;;;;3.35;2.10;;;;;;;32.91;41.20;99088.06;5110884;27;20402;-77
2021/07/01 11:00:15;;;;;;;3.33;1.83;;;;;;;32.82;40.62;99084.56;5110771;27;20413;-78
2021/07/01 11:02:55;;;;;;;2.60;2.10;;;;;;;32.91;40.44;99093.44;5108628;27;20407;-76
2021/07/01 11:05:35;;;;;;;3.13;2.22;;;;;;;32.98;40.41;99096.25;5112161;27;20739;-78
2021/07/01 11:08:25;;;;;;;2.97;2.67;;;;;;;32.75;39.86;99089.78;5112474;27;20925;-77
2021/07/01 11:11:20;;;;;;;3.97;2.85;;;;;;;32.27;40.99;99108.59;5082976;27;20398;-78
2021/07/01 11:14:00;;;;;;;3.40;2.78;;;;;;;32.02;41.70;99113.16;5111623;27;20431;-78
2021/07/01 11:16:39;;;;;;;5.38;3.08;;;;;;;31.72;41.90;99114.66;5092768;27;20405;-78
2021/07/01 11:19:21;;;;;;;4.10;3.00;;;;;;;31.34;42.15;99098.97;5133968;27;20804;-78
2021/07/01 11:22:00;;;;;;;4.53;3.30;;;;;;;31.10;43.42;99105.94;5112823;27;20542;-77
2021/07/01 11:24:40;;;;;;;3.25;2.80;;;;;;;30.93;43.68;99096.97;5115095;27;20130;-77
2021/07/01 11:27:23;;;;;;;3.00;2.70;;;;;;;30.64;43.97;99090.16;5160959;27;20409;-77
2021/07/01 11:30:00;;;;;;;4.38;3.00;;;;;;;30.15;44.39;99099.59;5101120;27;20412;-77
2021/07/01 11:32:38;;;;;;;3.70;2.60;;;;;;;29.67;45.29;99100.84;5111107;27;20918;-76
2021/07/01 11:35:24;;;;;;;3.05;2.83;;;;;;;29.39;45.79;99088.38;5108328;27;20603;-77
2021/07/01 11:38:01;;;;;;;4.07;2.80;;;;;;;29.09;46.11;99106.44;5058324;28;20919;-78
2021/07/01 11:40:38;;;;;;;3.97;2.78;;;;;;;28.78;46.57;99108.56;5099521;27;20388;-78
2021/07/01 11:43:17;;;;;;;2.90;2.70;;;;;;;28.57;47.32;99101.59;5055197;27;20127;-77
2021/07/01 11:45:55;;;;;;;3.95;3.05;;;;;;;28.65;47.71;99103.53;5133551;27;20128;-77
2021/07/01 11:48:34;;;;;;;3.35;2.88;;;;;;;28.75;47.87;99108.88;5112315;27;20181;-77
2021/07/01 11:51:13;;;;;;;10.98;3.80;;;;;;;28.69;47.65;99095.06;5060126;28;20417;-76
2021/07/01 11:53:54;;;;;;;4.43;2.90;;;;;;;28.85;47.50;99110.50;5113591;27;20408;-79
2021/07/01 11:59:33;;;;;;;3.75;2.72;;;;;;;28.62;47.16;99103.81;5115472;27;20423;-79
2021/07/01 12:02:11;;;;;;;4.07;3.15;;;;;;;28.50;47.73;99109.38;5116164;27;20444;-79
2021/07/01 12:04:50;;;;;;;6.55;3.72;;;;;;;28.26;48.16;99097.34;5115277;27;20404;-81
2021/07/01 12:07:30;;;;;;;6.97;3.10;;;;;;;28.16;48.92;99091.16;5131053;27;20406;-77
2021/07/01 12:10:09;;;;;;;5.05;3.78;;;;;;;28.27;48.91;99090.13;5144554;27;20929;-77
2021/07/01 12:12:46;;;;;;;3.67;3.13;;;;;;;28.47;48.96;99093.59;5109880;27;20418;-74
2021/07/01 12:15:24;;;;;;;4.93;3.22;;;;;;;28.58;48.43;99091.75;5130235;27;20402;-78
2021/07/01 12:18:04;;;;;;;6.38;3.20;;;;;;;28.68;48.90;99079.16;5109080;27;20411;-76
2021/07/01 12:20:50;;;;;;;6.10;3.10;;;;;;;29.07;48.32;99111.09;5109958;27;20685;-78
2021/07/01 12:23:27;;;;;;;4.68;2.97;;;;;;;29.24;48.00;99096.06;5089709;27;20409;-78
2021/07/01 12:26:04;;;;;;;3.20;2.90;;;;;;;29.38;47.59;99110.81;5101861;27;20133;-78
2021/07/01 12:28:42;;;;;;;3.30;3.00;;;;;;;29.24;46.71;99111.31;5068642;28;20410;-75
2021/07/01 12:31:24;;;;;;;3.25;2.65;;;;;;;29.13;46.62;99107.81;5101441;27;1446593;-76
2021/07/01 12:34:05;;;;;;;4.28;2.47;;;;;;;29.09;46.96;99094.91;5150137;27;20404;-75
2021/07/01 12:36:51;;;;;;;4.70;2.85;;;;;;;29.14;46.99;99100.63;5095191;27;20405;-76
2021/07/01 12:39:29;;;;;;;3.75;2.40;;;;;;;29.23;46.77;99102.41;5109575;27;20404;-75
2021/07/01 12:42:06;;;;;;;2.80;2.58;;;;;;;29.42;46.76;99114.00;5094554;27;20437;-75
2021/07/01 12:44:45;;;;;;;2.97;2.38;;;;;;;29.34;46.53;99104.03;5110076;27;20795;-78
2021/07/01 12:47:32;;;;;;;2.35;2.00;;;;;;;29.29;46.38;99087.56;5111864;27;20418;-78